»·PEaware :: N851TB KBLH-KEMT

N851TB :: KBLH-KEMT

FLIGHT INFORMATION

Flight Status: Arrived
Operator: Privately registered:
United States
More flights under this callsign
Pilot: Jakob K. (14108)
Aircraft: Unknown
(TBM8)
More flights by this aircraft type
Origin: KBLH Blythe
United States
Destination: KEMT El Monte
United States
More flights between these airports :: More routes between these airports
Route: +BLH V16 PSP SETER4
File this flight plan on PilotEdge
Remarks:
Altitude:
(Current/Filed)
16,000ft
Speed:
(Current/Filed)
240kts
Departed: 04-May-17 01:30 PM
Arrived: 04-May-17 02:18 PM
Distance/Time
Traveled:
168nm/0:48
Distance/Time
To Go:
Arrived

Flight Plot

Page will automatically refresh every two minutes.

Flight plan parsing failed; only flown route is shown


Map Options




Map Legend


Flown Route
Filed Route
Departure Airport
Arrival Airport
Navaid (VOR, NDB)
Fix

Horizontal Profiles

Position Reports

Time Latitude Longitude Heading Altitude Ground
Speed
04-May-17 13:10 33.615023 -114.715064 270 401ft 0kts
04-May-17 13:11 33.615023 -114.715064 270 401ft 0kts
04-May-17 13:12 33.615023 -114.715064 270 401ft 0kts
04-May-17 13:13 33.615023 -114.715064 270 401ft 0kts
04-May-17 13:14 33.615023 -114.715064 270 401ft 0kts
04-May-17 13:15 33.615023 -114.715064 270 401ft 0kts
04-May-17 13:16 33.615023 -114.715064 270 401ft 0kts
04-May-17 13:17 33.615023 -114.715064 270 401ft 0kts
04-May-17 13:18 33.615023 -114.715064 270 401ft 0kts
04-May-17 13:19 33.615023 -114.715064 270 401ft 0kts
04-May-17 13:20 33.615023 -114.715095 270 401ft 0kts
04-May-17 13:21 33.615023 -114.715097 270 401ft 0kts
04-May-17 13:22 33.615024 -114.715225 270 401ft 2kts
04-May-17 13:23 33.614910 -114.715743 186 401ft 5kts
04-May-17 13:24 33.614294 -114.716304 270 401ft 0kts
04-May-17 13:25 33.614294 -114.716306 270 401ft 0kts
04-May-17 13:26 33.614294 -114.716308 270 401ft 0kts
04-May-17 13:27 33.614294 -114.716310 270 401ft 0kts
04-May-17 13:28 33.614294 -114.716312 270 401ft 0kts
04-May-17 13:30 33.614294 -114.716316 270 401ft 0kts
04-May-17 13:31 33.614872 -114.716821 358 401ft 5kts
04-May-17 13:32 33.634500 -114.712895 60 830ft 107kts
04-May-17 13:33 33.616305 -114.706940 258 2199ft 146kts
04-May-17 13:34 33.600080 -114.759649 264 3472ft 187kts
04-May-17 13:35 33.607201 -114.824664 280 4699ft 205kts
04-May-17 13:36 33.618648 -114.893229 280 5911ft 217kts
04-May-17 13:37 33.631119 -114.966901 280 7112ft 231kts
04-May-17 13:38 33.644128 -115.043916 280 8323ft 239kts
04-May-17 13:39 33.657327 -115.122402 280 9516ft 241kts
04-May-17 13:40 33.670622 -115.201751 279 10729ft 246kts
04-May-17 13:41 33.684047 -115.282229 279 11917ft 245kts
04-May-17 13:42 33.697536 -115.363384 279 13136ft 251kts
04-May-17 13:43 33.711137 -115.445538 279 14320ft 250kts
04-May-17 13:44 33.724730 -115.528006 279 15533ft 256kts
04-May-17 13:45 33.738925 -115.614664 279 16010ft 280kts
04-May-17 13:46 33.754268 -115.708669 279 16001ft 293kts
04-May-17 13:47 33.769953 -115.805057 279 15998ft 294kts
04-May-17 13:48 33.785635 -115.901806 279 15790ft 302kts
04-May-17 13:49 33.801850 -116.002319 279 15092ft 310kts
04-May-17 13:50 33.817958 -116.103814 279 14391ft 308kts
04-May-17 13:51 33.833935 -116.204352 279 14017ft 298kts
04-May-17 13:52 33.849303 -116.301079 279 14026ft 294kts
04-May-17 13:53 33.864304 -116.397244 277 14025ft 293kts
04-May-17 13:54 33.872257 -116.494239 272 14017ft 292kts
04-May-17 13:55 33.877272 -116.591757 271 14027ft 293kts
04-May-17 13:56 33.881868 -116.689084 271 14066ft 292kts
04-May-17 13:57 33.886289 -116.786311 271 14115ft 292kts
04-May-17 13:58 33.889555 -116.883598 270 14136ft 292kts
04-May-17 13:59 33.893828 -116.974275 272 12951ft 251kts
04-May-17 14:00 33.898419 -117.054439 271 11544ft 232kts
04-May-17 14:01 33.900945 -117.130859 270 10199ft 227kts
04-May-17 14:02 33.903820 -117.202211 272 9379ft 202kts
04-May-17 14:03 33.907133 -117.268752 273 8455ft 202kts
04-May-17 14:04 33.910053 -117.335894 273 7547ft 200kts
04-May-17 14:05 33.912898 -117.401697 273 6651ft 195kts
04-May-17 14:06 33.915744 -117.465932 274 5755ft 191kts
04-May-17 14:07 33.921423 -117.529961 295 5105ft 191kts
04-May-17 14:08 33.948320 -117.579212 299 4701ft 177kts
04-May-17 14:09 33.978440 -117.625660 305 4116ft 175kts
04-May-17 14:10 34.002817 -117.671293 316 4085ft 151kts
04-May-17 14:11 34.030019 -117.708550 303 4117ft 166kts
04-May-17 14:12 34.060629 -117.758606 306 4126ft 191kts
04-May-17 14:13 34.079217 -117.807373 286 4109ft 152kts
04-May-17 14:14 34.081749 -117.856152 270 3774ft 138kts
04-May-17 14:15 34.083139 -117.895938 272 3340ft 108kts
04-May-17 14:16 34.084095 -117.930331 273 2752ft 109kts
04-May-17 14:17 34.087664 -117.966199 272 2330ft 103kts
04-May-17 14:18 34.100996 -117.996840 308 1833ft 111kts
04-May-17 14:19 34.097942 -118.026006 228 635ft 87kts
04-May-17 14:20 34.084710 -118.035558 198 300ft 17kts
04-May-17 14:21 34.081588 -118.037315 205 300ft 7kts
04-May-17 14:22 34.080912 -118.037164 91 300ft 0kts
04-May-17 14:23 34.081531 -118.036130 101 300ft 2kts

Navigation Log

Ident Type
Flight plan parsing failed, navigation log unavailable